createdAt,value
2018-05-04T00:00:13.878Z,8.47
2018-05-04T00:02:40.090Z,7.97
2018-05-04T00:05:06.384Z,7.50
2018-05-04T00:07:33.516Z,9.03
2018-05-04T00:09:59.724Z,9.10
2018-05-04T00:12:25.940Z,5.70
2018-05-04T00:14:52.267Z,5.77
2018-05-04T00:17:18.469Z,7.10
2018-05-04T00:19:45.403Z,10.37
2018-05-04T00:22:12.352Z,7.40
2018-05-04T00:24:39.321Z,9.93
2018-05-04T00:27:06.036Z,8.30
2018-05-04T00:29:32.347Z,7.13
2018-05-04T00:31:58.568Z,6.63
2018-05-04T00:34:24.772Z,8.87
2018-05-04T00:36:50.962Z,6.97
2018-05-04T00:39:17.217Z,9.57
2018-05-04T00:41:43.415Z,6.80
2018-05-04T00:44:09.660Z,10.30
2018-05-04T00:46:35.900Z,9.13
2018-05-04T00:49:02.108Z,6.90
2018-05-04T00:51:28.328Z,8.57
2018-05-04T00:54:06.828Z,11.20
2018-05-04T00:56:33.071Z,10.07
2018-05-04T00:58:59.276Z,11.27
2018-05-04T01:01:26.284Z,7.87
2018-05-04T01:03:52.489Z,8.50
2018-05-04T01:06:18.815Z,8.60
2018-05-04T01:08:45.109Z,12.80
2018-05-04T01:11:11.372Z,10.83
2018-05-04T01:13:44.782Z,12.60
2018-05-04T01:16:11.008Z,7.67
2018-05-04T01:18:37.224Z,10.50
2018-05-04T01:21:03.473Z,8.00
2018-05-04T01:23:29.682Z,8.73
2018-05-04T01:25:55.945Z,15.83
2018-05-04T01:28:22.180Z,12.60
2018-05-04T01:30:48.415Z,10.83
2018-05-04T01:33:14.669Z,9.90
2018-05-04T01:35:40.865Z,10.93
2018-05-04T01:38:07.081Z,9.40
2018-05-04T01:40:33.264Z,10.17
2018-05-04T01:42:59.472Z,8.43
2018-05-04T01:45:26.452Z,12.87
2018-05-04T01:47:52.676Z,9.30
2018-05-04T01:50:19.702Z,14.17
2018-05-04T01:52:46.093Z,9.03
2018-05-04T01:55:12.314Z,11.23
2018-05-04T01:57:38.545Z,10.77
2018-05-04T02:00:05.533Z,11.40
2018-05-04T02:02:31.739Z,7.97
2018-05-04T02:04:58.902Z,9.00
2018-05-04T02:07:25.189Z,12.03
2018-05-04T02:09:51.411Z,9.30
2018-05-04T02:12:17.638Z,12.47
2018-05-04T02:14:43.872Z,11.63
2018-05-04T02:17:10.095Z,9.37
2018-05-04T02:19:36.317Z,10.20
2018-05-04T02:22:02.535Z,13.53
2018-05-04T02:24:28.776Z,11.80
2018-05-04T02:26:55.022Z,14.67
2018-05-04T02:29:22.784Z,10.13
2018-05-04T02:31:49.014Z,12.33
2018-05-04T02:34:15.230Z,12.07
2018-05-04T02:36:41.425Z,10.17
2018-05-04T02:39:07.772Z,15.13
2018-05-04T02:41:34.804Z,15.17
2018-05-04T02:44:01.037Z,13.53
2018-05-04T02:46:27.257Z,14.93
2018-05-04T02:48:53.491Z,14.87
2018-05-04T02:51:19.724Z,13.20
2018-05-04T02:53:46.243Z,13.87
2018-05-04T02:56:12.465Z,13.33
2018-05-04T02:58:38.684Z,17.77
2018-05-04T03:01:05.676Z,18.17
2018-05-04T03:03:31.980Z,16.33
2018-05-04T03:05:58.199Z,13.87
2018-05-04T03:08:24.492Z,14.87
2018-05-04T03:10:50.716Z,17.20
2018-05-04T03:13:16.920Z,16.60
2018-05-04T03:15:44.040Z,16.30
2018-05-04T03:18:10.269Z,16.93
2018-05-04T03:20:36.519Z,19.30
2018-05-04T03:23:02.839Z,13.57
2018-05-04T03:25:29.944Z,14.80
2018-05-04T03:27:56.890Z,14.53
2018-05-04T03:30:23.103Z,16.63
2018-05-04T03:32:49.339Z,14.60
2018-05-04T03:35:15.573Z,15.20
2018-05-04T03:37:42.513Z,13.83
2018-05-04T03:40:09.513Z,11.83
2018-05-04T03:42:35.779Z,12.90
2018-05-04T03:45:02.892Z,16.23
2018-05-04T03:47:29.100Z,17.60
2018-05-04T03:49:55.338Z,13.03
2018-05-04T03:52:21.595Z,15.00
2018-05-04T03:54:47.981Z,15.43
2018-05-04T03:57:26.441Z,16.07
2018-05-04T04:00:05.144Z,17.50
2018-05-04T04:02:43.961Z,13.30
2018-05-04T04:05:10.316Z,15.53
2018-05-04T04:07:36.550Z,15.87
2018-05-04T04:10:03.593Z,14.87
2018-05-04T04:12:29.916Z,13.47
2018-05-04T04:14:56.100Z,14.13
2018-05-04T04:17:22.308Z,19.33
2018-05-04T04:19:49.049Z,15.07
2018-05-04T04:22:15.375Z,17.87
2018-05-04T04:24:42.497Z,17.37
2018-05-04T04:27:08.716Z,16.50
2018-05-04T04:29:34.932Z,15.50
2018-05-04T04:32:01.161Z,16.90
2018-05-04T04:34:27.388Z,16.60
2018-05-04T04:36:53.617Z,14.70
2018-05-04T04:39:19.845Z,19.83
2018-05-04T04:41:46.394Z,19.67
2018-05-04T04:44:13.693Z,20.67
2018-05-04T04:46:39.902Z,17.57
2018-05-04T04:49:06.119Z,16.87
2018-05-04T04:51:32.373Z,16.03
2018-05-04T04:53:58.613Z,22.30
2018-05-04T04:56:24.885Z,19.67
2018-05-04T04:58:51.244Z,16.43
2018-05-04T05:01:17.557Z,21.93
2018-05-04T05:03:43.777Z,19.97
2018-05-04T05:06:10.067Z,20.83
2018-05-04T05:08:36.290Z,19.67
2018-05-04T05:11:02.512Z,21.77
2018-05-04T05:13:28.835Z,27.50
2018-05-04T05:15:55.235Z,21.53
2018-05-04T05:18:22.415Z,23.60
2018-05-04T05:20:48.691Z,21.53
2018-05-04T05:23:15.725Z,22.27
2018-05-04T05:25:41.958Z,20.70
2018-05-04T05:28:08.205Z,21.57
2018-05-04T05:30:35.258Z,19.03
2018-05-04T05:33:02.220Z,25.07
2018-05-04T05:35:29.638Z,25.50
2018-05-04T05:37:56.600Z,22.60
2018-05-04T05:40:23.605Z,23.13
2018-05-04T05:42:49.848Z,20.87
2018-05-04T05:45:16.070Z,20.70
2018-05-04T05:47:42.316Z,23.87
2018-05-04T05:50:08.552Z,21.63
2018-05-04T05:52:35.512Z,20.67
2018-05-04T05:55:02.588Z,20.07
2018-05-04T05:57:29.092Z,19.23
2018-05-04T05:59:56.039Z,20.70
2018-05-04T06:02:23.000Z,21.87
2018-05-04T06:04:49.975Z,20.80
2018-05-04T06:07:16.172Z,17.60
2018-05-04T06:09:43.161Z,18.27
2018-05-04T06:12:09.400Z,16.57
2018-05-04T06:14:35.679Z,18.63
2018-05-04T06:17:01.968Z,15.43
2018-05-04T06:19:28.196Z,16.20
2018-05-04T06:21:54.457Z,17.50
2018-05-04T06:24:20.659Z,18.40
2018-05-04T06:26:46.891Z,17.60
2018-05-04T06:29:14.623Z,18.73
2018-05-04T06:31:40.887Z,19.30
2018-05-04T06:34:07.965Z,17.63
2018-05-04T06:36:34.288Z,19.63
2018-05-04T06:39:00.569Z,14.50
2018-05-04T06:41:26.770Z,16.03
2018-05-04T06:43:52.976Z,21.57
2018-05-04T06:46:19.693Z,16.93
2018-05-04T06:48:46.693Z,13.77
2018-05-04T06:51:12.894Z,14.93
2018-05-04T06:53:39.132Z,16.50
2018-05-04T06:56:06.164Z,15.63
2018-05-04T06:58:32.449Z,21.00
2018-05-04T07:00:58.686Z,17.50
2018-05-04T07:03:25.784Z,17.57
2018-05-04T07:05:53.185Z,18.23
2018-05-04T07:08:19.432Z,13.40
2018-05-04T07:10:45.693Z,14.70
2018-05-04T07:13:11.934Z,16.20
2018-05-04T07:15:38.963Z,11.60
2018-05-04T07:18:05.157Z,11.63
2018-05-04T07:20:32.141Z,12.53
2018-05-04T07:22:58.402Z,12.83
2018-05-04T07:25:24.597Z,8.57
2018-05-04T07:27:50.803Z,10.67
2018-05-04T07:30:17.898Z,10.73
2018-05-04T07:32:44.566Z,9.77
2018-05-04T07:35:12.125Z,11.57
2018-05-04T07:37:38.365Z,8.53
2018-05-04T07:40:05.294Z,8.20
2018-05-04T07:42:31.520Z,8.00
2018-05-04T07:44:58.471Z,8.30
2018-05-04T07:47:25.452Z,12.77
2018-05-04T07:49:51.998Z,9.13
2018-05-04T07:52:18.387Z,7.30
2018-05-04T07:54:44.843Z,9.70
2018-05-04T07:57:11.051Z,8.10
2018-05-04T07:59:38.007Z,7.22
2018-05-04T08:02:04.267Z,8.57
2018-05-04T08:04:30.532Z,6.65
2018-05-04T08:06:56.867Z,11.68
2018-05-04T08:09:23.876Z,7.50
2018-05-04T08:11:50.203Z,7.95
2018-05-04T08:14:16.464Z,6.35
2018-05-04T08:16:42.652Z,5.53
2018-05-04T08:19:08.886Z,5.05
2018-05-04T08:21:35.216Z,7.85
2018-05-04T08:24:01.461Z,7.57
2018-05-04T08:26:27.849Z,9.02
2018-05-04T08:28:54.224Z,9.30
2018-05-04T08:31:20.483Z,5.70
2018-05-04T08:33:47.465Z,8.65
2018-05-04T08:36:13.757Z,5.68
2018-05-04T08:38:40.850Z,5.78
2018-05-04T08:41:07.128Z,6.68
2018-05-04T08:43:34.109Z,6.10
2018-05-04T08:46:00.460Z,5.87
2018-05-04T08:48:26.765Z,6.90
2018-05-04T08:50:53.040Z,5.55
2018-05-04T08:53:19.244Z,7.65
2018-05-04T08:55:45.605Z,5.97
2018-05-04T08:58:11.816Z,5.90
2018-05-04T09:00:38.080Z,9.05
2018-05-04T09:03:04.380Z,5.50
2018-05-04T09:05:30.872Z,7.15
2018-05-04T09:07:57.881Z,6.82
2018-05-04T09:10:24.095Z,7.32
2018-05-04T09:12:50.413Z,6.90
2018-05-04T09:15:17.345Z,6.85
2018-05-04T09:17:43.852Z,7.60
2018-05-04T09:20:10.204Z,5.93
2018-05-04T09:22:36.519Z,6.50
2018-05-04T09:25:02.946Z,6.10
2018-05-04T09:27:29.997Z,7.87
2018-05-04T09:29:56.296Z,7.60
2018-05-04T09:32:23.288Z,5.87
2018-05-04T09:34:49.521Z,7.85
2018-05-04T09:37:15.752Z,8.75
2018-05-04T09:39:41.976Z,4.65
2018-05-04T09:42:08.234Z,9.70
2018-05-04T09:44:34.503Z,6.30
2018-05-04T09:47:00.748Z,6.45
2018-05-04T09:49:26.969Z,4.50
2018-05-04T09:51:53.190Z,6.10
2018-05-04T09:54:19.651Z,5.78
2018-05-04T09:56:45.876Z,5.15
2018-05-04T09:59:12.234Z,5.53
2018-05-04T10:01:38.549Z,8.82
2018-05-04T10:04:04.802Z,6.00
2018-05-04T10:06:31.040Z,6.57
2018-05-04T10:08:57.994Z,5.22
2018-05-04T10:11:24.770Z,5.68
2018-05-04T10:13:52.841Z,6.55
2018-05-04T10:16:19.137Z,6.32
2018-05-04T10:18:45.495Z,7.47
2018-05-04T10:21:12.102Z,5.72
2018-05-04T10:23:38.449Z,5.30
2018-05-04T10:26:04.971Z,6.75
2018-05-04T10:28:31.985Z,5.18
2018-05-04T10:30:59.031Z,6.93
2018-05-04T10:33:25.435Z,5.10
2018-05-04T10:35:51.895Z,7.37
2018-05-04T10:38:18.416Z,7.05
2018-05-04T10:40:44.787Z,7.87
2018-05-04T10:43:12.668Z,6.68
2018-05-04T10:45:39.102Z,6.32
2018-05-04T10:48:06.260Z,6.60
2018-05-04T10:50:32.525Z,7.03
2018-05-04T10:52:58.821Z,7.30
2018-05-04T10:55:25.196Z,7.20
2018-05-04T10:57:51.568Z,5.80
2018-05-04T11:00:17.846Z,6.67
2018-05-04T11:02:44.067Z,5.77
2018-05-04T11:05:11.377Z,9.47
2018-05-04T11:07:37.644Z,6.57
2018-05-04T11:10:03.876Z,8.20
2018-05-04T11:12:30.112Z,6.07
2018-05-04T11:14:56.359Z,9.37
2018-05-04T11:17:26.297Z,5.20
2018-05-04T11:19:52.675Z,6.90
2018-05-04T11:22:19.000Z,5.90
2018-05-04T11:24:45.215Z,7.10
2018-05-04T11:27:11.467Z,8.77
2018-05-04T11:29:37.799Z,7.33
2018-05-04T11:32:04.286Z,7.13
2018-05-04T11:34:30.606Z,5.70
2018-05-04T11:36:57.658Z,6.30
2018-05-04T11:39:24.314Z,4.30
2018-05-04T11:41:50.639Z,6.53
2018-05-04T11:44:16.868Z,6.40
2018-05-04T11:46:43.186Z,7.33
2018-05-04T11:49:09.549Z,7.97
2018-05-04T11:51:35.828Z,8.93
2018-05-04T11:54:02.129Z,5.57
2018-05-04T11:56:28.394Z,8.53
2018-05-04T11:58:55.407Z,10.43
2018-05-04T12:01:21.639Z,7.07
2018-05-04T12:03:48.666Z,7.33
2018-05-04T12:06:14.879Z,8.00
2018-05-04T12:08:41.122Z,7.47
2018-05-04T12:11:07.359Z,6.60
2018-05-04T12:13:33.677Z,8.87
2018-05-04T12:15:59.904Z,7.60
2018-05-04T12:18:26.140Z,7.20
2018-05-04T12:20:52.378Z,7.70
2018-05-04T12:23:18.611Z,5.93
2018-05-04T12:25:45.633Z,6.50
2018-05-04T12:28:11.848Z,8.30
2018-05-04T12:30:38.157Z,6.40
2018-05-04T12:33:04.603Z,6.90
2018-05-04T12:35:30.942Z,8.27
2018-05-04T12:37:57.290Z,5.10
2018-05-04T12:40:23.908Z,8.00
2018-05-04T12:42:50.188Z,7.23
2018-05-04T12:45:16.403Z,6.20
2018-05-04T12:47:42.649Z,9.63
2018-05-04T12:50:09.882Z,8.20
2018-05-04T12:52:36.200Z,10.83
2018-05-04T12:55:02.565Z,6.23
2018-05-04T12:57:29.536Z,6.17
2018-05-04T12:59:55.763Z,7.23
2018-05-04T13:02:22.111Z,7.03
2018-05-04T13:04:48.471Z,7.90
2018-05-04T13:07:14.852Z,6.17
2018-05-04T13:09:41.842Z,7.90
2018-05-04T13:12:08.365Z,5.77
2018-05-04T13:14:34.690Z,7.90
2018-05-04T13:17:00.930Z,9.87
2018-05-04T13:19:27.254Z,7.03
2018-05-04T13:21:53.564Z,7.00
2018-05-04T13:24:20.337Z,8.97
2018-05-04T13:26:46.545Z,8.13
2018-05-04T13:29:12.875Z,6.53
2018-05-04T13:31:39.150Z,7.20
2018-05-04T13:34:05.365Z,7.40
2018-05-04T13:36:31.618Z,7.67
2018-05-04T13:38:57.840Z,6.67
2018-05-04T13:41:25.081Z,7.30
2018-05-04T13:43:52.181Z,8.57
2018-05-04T13:46:18.430Z,11.83
2018-05-04T13:48:44.726Z,12.17
2018-05-04T13:51:11.079Z,8.17
2018-05-04T13:53:37.989Z,7.17
2018-05-04T13:56:04.223Z,9.53
2018-05-04T13:58:30.504Z,8.67
2018-05-04T14:00:58.200Z,5.93
2018-05-04T14:03:24.459Z,7.23
2018-05-04T14:05:50.732Z,10.73
2018-05-04T14:08:17.853Z,6.80
2018-05-04T14:10:44.855Z,8.17
2018-05-04T14:13:11.155Z,6.33
2018-05-04T14:15:38.120Z,8.30
2018-05-04T14:18:05.458Z,5.40
2018-05-04T14:20:31.754Z,5.33
2018-05-04T14:22:58.001Z,7.97
2018-05-04T14:25:24.299Z,8.23
2018-05-04T14:27:50.557Z,6.70
2018-05-04T14:30:16.758Z,7.47
2018-05-04T14:32:43.035Z,7.53
2018-05-04T14:35:10.061Z,9.87
2018-05-04T14:37:36.376Z,7.50
2018-05-04T14:40:02.661Z,9.13
2018-05-04T14:42:28.933Z,5.40
2018-05-04T14:44:55.289Z,7.30
2018-05-04T14:47:21.594Z,7.00
2018-05-04T14:49:48.597Z,9.10
2018-05-04T14:52:14.838Z,7.77
2018-05-04T14:54:41.127Z,9.00
2018-05-04T14:57:08.070Z,7.77
2018-05-04T14:59:34.296Z,8.60
2018-05-04T15:02:00.678Z,7.07
2018-05-04T15:04:26.998Z,8.23
2018-05-04T15:06:53.465Z,9.23
2018-05-04T15:09:19.769Z,6.87
2018-05-04T15:11:46.000Z,12.53
2018-05-04T15:14:12.228Z,7.57
2018-05-04T15:16:38.477Z,5.97
2018-05-04T15:19:04.730Z,7.57
2018-05-04T15:21:31.741Z,6.00
2018-05-04T15:23:58.000Z,7.43
2018-05-04T15:26:25.016Z,8.20
2018-05-04T15:28:51.250Z,8.17
2018-05-04T15:31:17.482Z,8.97
2018-05-04T15:33:44.455Z,10.47
2018-05-04T15:36:10.772Z,7.93
2018-05-04T15:38:37.034Z,9.30
2018-05-04T15:41:03.309Z,10.23
2018-05-04T15:43:33.640Z,11.17
2018-05-04T15:46:02.061Z,9.17
2018-05-04T15:48:34.413Z,10.20
2018-05-04T15:51:07.403Z,14.90
2018-05-04T15:53:34.452Z,11.03
2018-05-04T15:56:01.464Z,8.07
2018-05-04T15:58:27.686Z,10.40
2018-05-04T16:00:53.912Z,6.37
2018-05-04T16:03:22.018Z,6.17
2018-05-04T16:05:48.243Z,10.00
2018-05-04T16:08:14.612Z,7.60
2018-05-04T16:10:40.874Z,10.30
2018-05-04T16:13:07.779Z,9.00
2018-05-04T16:15:34.162Z,9.67
2018-05-04T16:18:00.412Z,12.10
2018-05-04T16:20:26.631Z,9.60
2018-05-04T16:22:52.906Z,9.33
2018-05-04T16:25:19.225Z,11.53
2018-05-04T16:27:45.507Z,10.57
2018-05-04T16:30:11.949Z,12.17
2018-05-04T16:32:38.306Z,11.63
2018-05-04T16:35:04.485Z,7.87
2018-05-04T16:37:30.700Z,8.33
2018-05-04T16:39:56.947Z,8.60
2018-05-04T16:42:23.187Z,9.90
2018-05-04T16:44:49.470Z,11.23
2018-05-04T16:47:22.082Z,6.83
2018-05-04T16:49:49.317Z,9.83
2018-05-04T16:52:15.669Z,10.50
2018-05-04T16:54:42.072Z,8.73
2018-05-04T16:57:08.482Z,9.87
2018-05-04T16:59:34.954Z,10.57
2018-05-04T17:02:01.221Z,11.33
2018-05-04T17:04:27.543Z,10.13
2018-05-04T17:06:53.852Z,7.93
2018-05-04T17:09:20.238Z,12.93
2018-05-04T17:11:47.325Z,8.73
2018-05-04T17:14:13.612Z,12.57
2018-05-04T17:16:39.902Z,10.77
2018-05-04T17:19:06.237Z,7.83
2018-05-04T17:21:32.479Z,10.47
2018-05-04T17:23:59.594Z,8.97
2018-05-04T17:26:27.382Z,7.27
2018-05-04T17:28:53.691Z,10.30
2018-05-04T17:31:20.830Z,11.17
2018-05-04T17:33:47.086Z,10.47
2018-05-04T17:36:13.326Z,9.47
2018-05-04T17:38:40.289Z,7.77
2018-05-04T17:41:06.565Z,10.47
2018-05-04T17:43:32.907Z,11.13
2018-05-04T17:45:59.121Z,8.13
2018-05-04T17:48:25.523Z,11.77
2018-05-04T17:50:51.765Z,11.50
2018-05-04T17:53:18.166Z,9.67
2018-05-04T17:55:44.462Z,10.47
2018-05-04T17:58:10.738Z,7.27
2018-05-04T18:00:36.976Z,7.77
2018-05-04T18:03:03.316Z,12.60
2018-05-04T18:05:29.541Z,8.27
2018-05-04T18:07:55.964Z,7.43
2018-05-04T18:10:22.438Z,9.80
2018-05-04T18:12:50.572Z,8.23
2018-05-04T18:15:16.867Z,9.63
2018-05-04T18:17:43.969Z,10.40
2018-05-04T18:20:10.965Z,8.73
2018-05-04T18:22:37.925Z,8.27
2018-05-04T18:25:04.312Z,10.73
2018-05-04T18:27:31.518Z,12.07
2018-05-04T18:29:58.880Z,11.23
2018-05-04T18:32:25.302Z,8.83
2018-05-04T18:34:51.558Z,11.30
2018-05-04T18:37:17.777Z,11.90
2018-05-04T18:39:44.807Z,9.67
2018-05-04T18:42:11.065Z,12.60
2018-05-04T18:44:37.392Z,10.57
2018-05-04T18:47:04.745Z,11.57
2018-05-04T18:49:31.357Z,10.20
2018-05-04T18:51:57.719Z,10.30
2018-05-04T18:54:24.760Z,9.50
2018-05-04T18:56:51.021Z,10.07
2018-05-04T18:59:17.248Z,10.23
2018-05-04T19:01:44.221Z,10.77
2018-05-04T19:04:10.482Z,10.80
2018-05-04T19:06:36.775Z,12.20
2018-05-04T19:09:03.173Z,12.60
2018-05-04T19:11:30.172Z,10.83
2018-05-04T19:13:56.442Z,12.50
2018-05-04T19:16:22.683Z,13.47
2018-05-04T19:18:49.668Z,12.03
2018-05-04T19:21:15.899Z,8.87
2018-05-04T19:23:42.249Z,10.57
2018-05-04T19:26:09.397Z,11.77
2018-05-04T19:28:36.409Z,13.40
2018-05-04T19:31:02.654Z,11.97
2018-05-04T19:33:28.963Z,9.83
2018-05-04T19:35:55.196Z,8.70
2018-05-04T19:38:21.434Z,9.67
2018-05-04T19:40:48.445Z,15.10
2018-05-04T19:43:15.638Z,11.50
2018-05-04T19:45:41.910Z,10.47
2018-05-04T19:48:08.327Z,9.33
2018-05-04T19:50:34.592Z,10.03
2018-05-04T19:53:01.561Z,11.70
2018-05-04T19:55:27.844Z,9.27
2018-05-04T19:57:54.807Z,12.83
2018-05-04T20:00:21.071Z,10.03
2018-05-04T20:02:47.414Z,8.67
2018-05-04T20:05:13.722Z,11.30
2018-05-04T20:07:40.014Z,12.30
2018-05-04T20:10:06.299Z,9.03
2018-05-04T20:12:32.587Z,9.17
2018-05-04T20:14:58.854Z,12.70
2018-05-04T20:17:25.063Z,9.80
2018-05-04T20:19:51.326Z,11.60
2018-05-04T20:22:18.358Z,8.63
2018-05-04T20:24:45.925Z,9.03
2018-05-04T20:27:12.319Z,8.83
2018-05-04T20:29:38.547Z,8.73
2018-05-04T20:32:04.755Z,8.83
2018-05-04T20:34:31.753Z,7.43
2018-05-04T20:37:04.904Z,9.60
2018-05-04T20:39:31.175Z,9.53
2018-05-04T20:41:57.436Z,7.90
2018-05-04T20:44:23.803Z,12.17
2018-05-04T20:46:50.509Z,8.20
2018-05-04T20:49:16.828Z,9.03
2018-05-04T20:51:43.058Z,11.17
2018-05-04T20:54:10.923Z,9.23
2018-05-04T20:56:38.547Z,8.63
2018-05-04T20:59:05.435Z,10.17
2018-05-04T21:01:33.109Z,6.43
2018-05-04T21:04:00.039Z,9.00
2018-05-04T21:06:28.032Z,9.67
2018-05-04T21:08:55.978Z,9.20
2018-05-04T21:11:23.081Z,9.57
2018-05-04T21:13:50.089Z,8.20
2018-05-04T21:16:17.214Z,8.37
2018-05-04T21:18:43.541Z,9.57
2018-05-04T21:21:09.783Z,8.23
2018-05-04T21:23:36.017Z,8.17
2018-05-04T21:26:03.834Z,11.33
2018-05-04T21:28:31.572Z,8.43
2018-05-04T21:30:58.972Z,7.00
2018-05-04T21:33:25.283Z,11.33
2018-05-04T21:35:52.563Z,10.20
2018-05-04T21:38:19.051Z,10.80
2018-05-04T21:40:45.434Z,10.87
2018-05-04T21:43:11.668Z,7.40
2018-05-04T21:45:38.630Z,9.37
2018-05-04T21:48:05.591Z,13.97
2018-05-04T21:50:31.868Z,10.87
2018-05-04T21:52:58.084Z,10.70
2018-05-04T21:55:24.373Z,10.47
2018-05-04T21:57:50.806Z,9.30
2018-05-04T22:00:17.507Z,9.17
2018-05-04T22:02:43.975Z,11.00
2018-05-04T22:05:10.178Z,10.53
2018-05-04T22:07:37.657Z,12.30
2018-05-04T22:10:04.793Z,9.70
2018-05-04T22:12:32.150Z,12.33
2018-05-04T22:15:00.271Z,12.17
2018-05-04T22:17:27.336Z,10.80
2018-05-04T22:19:53.650Z,8.47
2018-05-04T22:22:19.988Z,8.70
2018-05-04T22:24:46.985Z,10.07
2018-05-04T22:27:13.222Z,13.13
2018-05-04T22:29:39.473Z,17.63
2018-05-04T22:32:05.777Z,10.13
2018-05-04T22:34:31.976Z,12.80
2018-05-04T22:36:58.985Z,12.10
2018-05-04T22:39:25.248Z,9.37
2018-05-04T22:41:52.235Z,10.97
2018-05-04T22:44:18.468Z,13.60
2018-05-04T22:46:44.704Z,13.43
2018-05-04T22:49:10.954Z,9.67
2018-05-04T22:51:37.993Z,11.40
2018-05-04T22:54:04.251Z,10.00
2018-05-04T22:56:30.509Z,11.57
2018-05-04T22:58:56.682Z,11.90
2018-05-04T23:01:22.978Z,11.20
2018-05-04T23:03:49.194Z,10.13
2018-05-04T23:06:15.451Z,13.30
2018-05-04T23:08:42.545Z,12.10
2018-05-04T23:11:08.776Z,9.40
2018-05-04T23:13:35.720Z,14.70
2018-05-04T23:16:02.737Z,11.13
2018-05-04T23:18:28.963Z,12.40
2018-05-04T23:20:55.217Z,9.07
2018-05-04T23:23:21.416Z,10.27
2018-05-04T23:25:47.726Z,10.07
2018-05-04T23:28:13.960Z,11.63
2018-05-04T23:30:40.176Z,12.23
2018-05-04T23:33:06.420Z,10.60
2018-05-04T23:35:32.818Z,12.97
2018-05-04T23:37:59.083Z,12.13
2018-05-04T23:40:25.309Z,13.03
2018-05-04T23:42:51.548Z,10.87
2018-05-04T23:45:18.791Z,10.10
2018-05-04T23:47:45.760Z,11.03
2018-05-04T23:50:11.968Z,11.90
2018-05-04T23:52:38.193Z,12.03
2018-05-04T23:55:04.488Z,11.93
2018-05-04T23:57:30.712Z,15.07
2018-05-04T23:59:57.028Z,9.37
